NOAA-style Climate Reports

   V/Λ SELECT: Month and Year   OR  >   Month
                   Monthly Climatological Summary for Aug 2018

Name: Wetterstation Bebra-Gilfershausen   City: Bebra   State: Germany
Elevation: 250 m  Lat: N 50 59 02   Lon: E 009 49 37

                  Temperature (°°C), Rain (mm), Wind Speed (km/h)

                                      Heat  Cool        Avg
    Mean                              Deg   Deg         Wind                 Dom
Day Temp  High   Time   Low    Time   Days  Days  Rain  Speed High   Time    Dir
----------------------------------------------------------------------------------
01 -29,6 -29,6   00:00 -29,6   00:00  47,6   0,0   0,0   0,0   0,0   00:00     N
02 -29,6 -29,6   00:00 -29,6   00:00  47,6   0,0   0,0   0,0   0,0   00:00     N
03 -29,6 -29,6   00:00 -29,6   00:00  47,6   0,0   0,0   0,0   0,0   00:00     N
04 -29,6 -29,6   00:00 -29,6   00:00  47,6   0,0   0,0   0,0   0,0   00:00     N
05 -29,6 -29,6   00:00 -29,6   00:00  47,6   0,0   0,0   0,0   0,0   00:00     N
06 -29,6 -29,6   00:00 -29,6   00:00  47,6   0,0   0,0   0,0   0,0   00:00     N
07 -29,6 -29,6   00:00 -29,6   00:00  47,6   0,0   0,0   0,0   0,0   00:00     N
08 -29,6 -29,6   00:00 -29,6   00:00  47,6   0,0   0,5   0,0   0,0   00:00     N
09 -29,6 -29,6   00:00 -29,6   00:00  47,6   0,0   0,0   0,0   0,0   00:00     N
10 -29,6 -29,6   00:00 -29,6   00:00  47,6   0,0   0,0   0,0   0,0   00:00     N
11 -29,6 -29,6   00:00 -29,6   00:00  47,6   0,0   0,0   0,0   0,0   00:00     N
12 -29,6 -29,6   00:00 -29,6   00:00  47,6   0,0   0,0   0,0   0,0   00:00     N
13 -29,6 -29,6   00:00 -29,6   00:00  47,6   0,0   6,2   0,0   0,0   00:00     N
14 -29,6 -29,6   00:00 -29,6   00:00  47,6   0,0   0,0   0,0   0,0   00:00     N
15 -29,6 -29,6   00:00 -29,6   00:00  47,6   0,0   0,0   0,0   0,0   00:00     N
16 -29,6 -29,6   00:00 -29,6   00:00  47,6   0,0   0,0   0,0   0,0   00:00     N
17 -29,6 -29,6   00:00 -29,6   00:00  47,6   0,0   0,0   0,0   0,0   00:00     N
18 -29,6 -29,6   00:00 -29,6   00:00  47,6   0,0   0,0   0,0   0,0   00:00     N
19 -29,6 -29,6   00:00 -29,6   00:00  47,6   0,0   0,0   0,0   0,0   00:00     N
20 -29,6 -29,6   00:00 -29,6   00:00  47,6   0,0   0,0   0,0   0,0   00:00     N
21 -29,6 -29,6   00:00 -29,6   00:00  47,6   0,0   0,0   0,0   0,0   00:00     N
22 -29,6 -29,6   00:00 -29,6   00:00  47,6   0,0   0,0   0,0   0,0   00:00     N
23 -29,6 -29,6   00:00 -29,6   00:00  47,6   0,0   0,0   0,0   0,0   00:00     N
24 -29,6 -29,6   00:00 -29,6   00:00  47,6   0,0   2,6   0,0   0,0   00:00     N
25 -29,6 -29,6   00:00 -29,6   00:00  47,6   0,0   1,0   0,0   0,0   00:00     N
26 -29,6 -29,6   00:00 -29,6   00:00  47,6   0,0   0,5   0,0   0,0   00:00     N
27 -29,6 -29,6   00:00 -29,6   00:00  47,6   0,0   0,0   0,0   0,0   00:00     N
28 -29,6 -29,6   00:00 -29,6   00:00  47,6   0,0   0,0   0,0   0,0   00:00     N
29 -29,6 -29,6   00:00 -29,6   00:00  47,6   0,0   2,6   0,0   0,0   00:00     N
30  -3,0  21,2   16:38 -29,6   00:00  24,0   0,0   0,0   0,0   0,0   00:00     N
31  14,1  20,1   14:19   9,6   23:53   4,1   0,0   0,0   0,0   0,0   00:00     N
----------------------------------------------------------------------------------
   -27,3  21,2    30   -29,6     1  1408,5   0,0  13,4   0,0   0,0     0       E

Max >=  27,0  0
Max <=   0,0 29
Min <=   0,0 30
Min <= -18,0 30
Max Rain: 6,2 on day 13
Days of Rain: 3 (>= 2,0 mm)  3 (>= 2,0 mm)  3 (>= 2,0 mm)
Heat Base: 18,0  Cool Base: 29,0  Method: Integration

powered by CumulusMX v3.8.3 (b3093) Valid HTML5    Last Cumulus update   08:43:19